Time;durP1;ratioP1;P1;durP2;ratioP2;P2;SDS_P1;SDS_P2;PMS_P1;PMS_P2;Temp;Humidity;BMP_temperature;BMP_pressure;BME280_temperature;BME280_humidity;BME280_pressure;Samples;Min_cycle;Max_cycle;Signal;HPM_P1;HPM_P2
2021/07/11 00:00:01;;;;;;;8.85;3.70;;;;;;;17.63;65.94;99776.16;10553879;28;20054;-60
2021/07/11 00:05:05;;;;;;;7.78;3.00;;;;;;;17.57;66.11;99774.91;10551190;28;20143;-60
2021/07/11 00:10:09;;;;;;;5.55;3.08;;;;;;;17.69;66.47;99786.16;10552427;28;20450;-60
2021/07/11 00:15:15;;;;;;;5.85;2.67;;;;;;;17.83;66.66;99778.66;10560084;28;20044;-60
2021/07/11 00:20:22;;;;;;;5.93;2.47;;;;;;;17.91;66.87;99779.75;10551206;28;20055;-60
2021/07/11 00:25:24;;;;;;;7.65;3.00;;;;;;;18.07;66.28;99774.72;10539339;28;20048;-60
2021/07/11 00:30:26;;;;;;;6.68;3.13;;;;;;;18.12;66.19;99768.00;10526093;28;20492;-60
2021/07/11 00:35:27;;;;;;;8.23;3.03;;;;;;;18.20;66.28;99767.34;10540048;28;20043;-60
2021/07/11 00:40:29;;;;;;;6.25;2.75;;;;;;;18.16;65.95;99781.78;10535067;28;20079;-59
2021/07/11 00:45:31;;;;;;;6.50;3.20;;;;;;;18.07;66.30;99772.06;10568587;28;20075;-60
2021/07/11 00:50:33;;;;;;;5.18;2.80;;;;;;;18.01;66.07;99759.41;10544021;28;20044;-60
2021/07/11 00:55:36;;;;;;;8.38;3.40;;;;;;;18.00;66.21;99757.72;10540467;28;20051;-60
2021/07/11 01:00:47;;;;;;;7.07;2.35;;;;;;;17.76;66.19;99761.69;10546177;28;20501;-60
2021/07/11 01:05:49;;;;;;;6.57;3.60;;;;;;;17.56;66.58;99752.09;10527896;28;20130;-59
2021/07/11 01:11:04;;;;;;;6.63;2.55;;;;;;;17.60;67.27;99756.13;10572248;28;20464;-60
2021/07/11 01:16:24;;;;;;;6.90;2.90;;;;;;;17.56;67.32;99769.78;10543961;28;20052;-60
2021/07/11 01:21:32;;;;;;;11.10;3.85;;;;;;;17.47;67.70;99774.06;10543270;28;20040;-60
2021/07/11 01:26:35;;;;;;;10.75;3.78;;;;;;;17.39;67.65;99768.66;10541211;28;20132;-60
2021/07/11 01:31:36;;;;;;;5.80;2.72;;;;;;;17.39;67.64;99752.78;10543519;28;20055;-60
2021/07/11 01:36:39;;;;;;;6.18;3.17;;;;;;;17.51;67.04;99761.41;10549348;28;20065;-60
2021/07/11 01:41:44;;;;;;;7.90;3.15;;;;;;;17.56;66.94;99760.03;10569228;28;20082;-60
2021/07/11 01:46:47;;;;;;;4.20;3.13;;;;;;;17.53;67.02;99754.16;10568731;28;20036;-60
2021/07/11 01:51:49;;;;;;;9.48;3.60;;;;;;;17.61;67.24;99755.16;10542902;28;20043;-60
2021/07/11 01:56:51;;;;;;;7.03;3.60;;;;;;;17.60;66.99;99750.00;10544235;28;20498;-60
2021/07/11 02:01:53;;;;;;;7.03;4.00;;;;;;;17.54;66.77;99755.84;10545985;28;20056;-60
2021/07/11 02:06:54;;;;;;;9.15;3.88;;;;;;;17.49;67.41;99764.19;10545950;28;20040;-60
2021/07/11 02:12:01;;;;;;;7.38;4.15;;;;;;;17.50;67.01;99768.53;10547451;28;20147;-59
2021/07/11 02:17:09;;;;;;;6.15;3.80;;;;;;;17.46;67.29;99763.66;10531360;28;20139;-59
2021/07/11 02:22:12;;;;;;;8.65;4.85;;;;;;;17.46;66.78;99767.13;10551265;28;20036;-60
2021/07/11 02:27:14;;;;;;;10.27;5.65;;;;;;;17.42;66.99;99773.69;10542109;28;20550;-60
2021/07/11 02:32:16;;;;;;;10.85;5.10;;;;;;;17.37;66.95;99770.59;10572189;28;20126;-59
2021/07/11 02:37:21;;;;;;;13.65;6.05;;;;;;;17.39;67.13;99767.81;10555784;28;20464;-60
2021/07/11 02:42:23;;;;;;;14.95;4.40;;;;;;;17.34;67.20;99781.47;10559050;28;20095;-59
2021/07/11 02:47:28;;;;;;;11.25;4.35;;;;;;;17.33;66.85;99777.13;10569469;28;20127;-59
2021/07/11 02:52:31;;;;;;;8.63;3.97;;;;;;;17.30;67.37;99785.28;10558589;28;20131;-59
2021/07/11 02:57:36;;;;;;;9.30;4.47;;;;;;;17.29;67.22;99788.09;10543938;28;21481;-60
2021/07/11 03:02:40;;;;;;;6.35;4.50;;;;;;;17.16;67.58;99796.28;10517376;28;20058;-60
2021/07/11 03:07:41;;;;;;;8.07;4.40;;;;;;;17.23;67.46;99797.41;10534767;28;20559;-59
2021/07/11 03:12:46;;;;;;;8.45;3.88;;;;;;;17.31;67.33;99796.72;10547068;28;20054;-60
2021/07/11 03:17:48;;;;;;;9.80;4.28;;;;;;;17.34;67.14;99802.63;10545103;28;20049;-59
2021/07/11 03:22:53;;;;;;;9.40;4.20;;;;;;;17.45;66.95;99796.34;10569701;28;20404;-60
2021/07/11 03:27:56;;;;;;;9.45;3.78;;;;;;;17.53;66.44;99801.78;10537814;28;20128;-60
2021/07/11 03:33:00;;;;;;;10.27;4.43;;;;;;;17.52;66.67;99805.41;10541399;28;20140;-60
2021/07/11 03:38:04;;;;;;;9.35;4.20;;;;;;;17.40;66.76;99801.22;10575742;28;20554;-60
2021/07/11 03:43:09;;;;;;;7.72;4.50;;;;;;;17.43;66.80;99801.78;10562067;28;20134;-59
2021/07/11 03:48:18;;;;;;;7.18;4.55;;;;;;;17.48;66.75;99809.28;10560763;28;20135;-60
2021/07/11 03:53:22;;;;;;;10.35;4.88;;;;;;;17.48;66.66;99819.88;10542251;28;20044;-59
2021/07/11 03:58:28;;;;;;;9.82;4.88;;;;;;;17.49;66.71;99818.88;10518498;28;20491;-60
2021/07/11 04:03:32;;;;;;;9.93;5.20;;;;;;;17.60;66.19;99818.75;10561678;28;20046;-60
2021/07/11 04:08:35;;;;;;;10.00;4.20;;;;;;;17.62;65.68;99830.88;10563649;28;20077;-59
2021/07/11 04:13:38;;;;;;;9.32;4.35;;;;;;;17.58;65.85;99832.13;10553499;28;20138;-60
2021/07/11 04:18:43;;;;;;;12.10;4.53;;;;;;;17.54;66.12;99825.44;10537900;28;20441;-60
2021/07/11 04:23:48;;;;;;;8.52;5.10;;;;;;;17.55;66.20;99837.69;10536049;28;20066;-60
2021/07/11 04:28:50;;;;;;;11.35;4.60;;;;;;;17.56;66.04;99841.16;10574204;28;20047;-60
2021/07/11 04:33:52;;;;;;;11.38;4.80;;;;;;;17.48;66.05;99841.88;10543415;28;20486;-60
2021/07/11 04:38:54;;;;;;;7.47;4.28;;;;;;;17.44;66.12;99839.63;10563477;27;20043;-60
2021/07/11 04:44:02;;;;;;;7.22;3.80;;;;;;;17.40;65.75;99844.38;10554367;28;20412;-60
2021/07/11 04:49:04;;;;;;;9.50;4.75;;;;;;;17.40;65.56;99835.59;10552136;28;20052;-60
2021/07/11 04:54:07;;;;;;;9.70;3.60;;;;;;;17.40;65.77;99854.94;10539928;28;20040;-60
2021/07/11 04:59:09;;;;;;;8.00;3.85;;;;;;;17.42;65.90;99853.00;10532611;28;20052;-60
2021/07/11 05:04:11;;;;;;;6.53;3.50;;;;;;;17.47;65.76;99866.63;10574511;28;20127;-60
2021/07/11 05:09:12;;;;;;;8.70;3.60;;;;;;;17.58;65.28;99861.22;10555647;28;20165;-60
2021/07/11 05:14:14;;;;;;;7.93;3.70;;;;;;;17.61;64.93;99863.56;10528632;28;20433;-60
2021/07/11 05:19:16;;;;;;;5.45;3.50;;;;;;;17.60;64.60;99866.38;10526938;28;20051;-60
2021/07/11 05:24:17;;;;;;;8.30;3.08;;;;;;;17.69;64.89;99869.00;10548051;28;20106;-60
2021/07/11 05:29:19;;;;;;;6.38;3.72;;;;;;;17.77;64.80;99869.16;10537297;28;20470;-60
2021/07/11 05:34:21;;;;;;;7.25;3.83;;;;;;;17.78;63.77;99870.84;10551643;28;20123;-62
2021/07/11 05:39:22;;;;;;;4.85;3.47;;;;;;;17.72;63.74;99871.41;10520682;28;20132;-59
2021/07/11 05:44:24;;;;;;;8.80;4.00;;;;;;;17.74;64.11;99872.09;10494472;28;20143;-59
2021/07/11 05:49:26;;;;;;;10.15;4.45;;;;;;;17.67;64.24;99870.97;10465705;28;20132;-59
2021/07/11 05:54:27;;;;;;;6.35;4.03;;;;;;;17.75;64.28;99881.69;10475746;28;20127;-59
2021/07/11 05:59:29;;;;;;;9.05;4.25;;;;;;;17.71;64.42;99890.03;10486818;28;20063;-59
2021/07/11 06:04:31;;;;;;;10.23;4.35;;;;;;;17.77;64.31;99892.16;10475566;28;20052;-59
2021/07/11 06:09:32;;;;;;;11.00;5.00;;;;;;;17.80;64.24;99908.56;10486202;28;20044;-59
2021/07/11 06:14:34;;;;;;;11.23;5.90;;;;;;;17.79;64.56;99904.25;10454440;28;20057;-59
2021/07/11 06:19:36;;;;;;;9.23;5.63;;;;;;;17.78;64.52;99886.72;10458435;28;20088;-59
2021/07/11 06:24:38;;;;;;;8.63;5.63;;;;;;;17.86;64.37;99901.88;10465275;28;20115;-59
2021/07/11 06:29:39;;;;;;;10.10;6.10;;;;;;;17.93;63.94;99902.16;10468057;28;20120;-59
2021/07/11 06:34:41;;;;;;;8.13;6.55;;;;;;;17.87;64.24;99908.88;10454179;28;20128;-59
2021/07/11 06:39:43;;;;;;;8.02;5.93;;;;;;;17.95;63.67;99906.34;10447205;28;20057;-59
2021/07/11 06:44:45;;;;;;;9.30;5.35;;;;;;;17.98;63.53;99916.66;10457965;28;20476;-59
2021/07/11 06:49:46;;;;;;;8.00;5.97;;;;;;;18.08;63.96;99919.28;10462091;28;20159;-59
2021/07/11 06:54:51;;;;;;;9.63;6.10;;;;;;;18.12;63.76;99908.28;10464466;28;20128;-59
2021/07/11 06:59:53;;;;;;;9.18;6.15;;;;;;;18.36;63.23;99908.72;10431293;28;20505;-59
2021/07/11 07:04:55;;;;;;;8.50;6.50;;;;;;;18.50;63.49;99915.41;10449157;28;20051;-59
2021/07/11 07:09:56;;;;;;;12.52;8.13;;;;;;;18.54;63.43;99908.84;10432438;28;20128;-60
2021/07/11 07:14:58;;;;;;;11.85;7.82;;;;;;;18.58;63.15;99915.53;10431156;28;20429;-62
2021/07/11 07:20:00;;;;;;;11.07;8.57;;;;;;;18.66;63.12;99915.66;10453012;28;20055;-62
2021/07/11 07:25:08;;;;;;;11.27;8.50;;;;;;;18.73;62.74;99922.03;10459308;28;20055;-62
2021/07/11 07:32:10;;;;;;;11.15;8.20;;;;;;;18.60;62.19;99927.66;10448806;27;84995;-62
2021/07/11 07:37:12;;;;;;;14.10;8.73;;;;;;;18.57;62.82;99924.44;10438888;28;20132;-62
2021/07/11 07:42:14;;;;;;;11.60;9.60;;;;;;;18.63;62.01;99919.41;10406008;28;20083;-62
2021/07/11 07:47:16;;;;;;;12.05;9.63;;;;;;;18.60;62.60;99913.56;10393940;28;20128;-63
2021/07/11 07:52:18;;;;;;;11.85;9.82;;;;;;;18.87;62.14;99910.97;10394468;28;20056;-62
2021/07/11 07:57:20;;;;;;;12.02;9.45;;;;;;;18.88;61.63;99909.16;10395178;28;20133;-60
2021/07/11 08:02:23;;;;;;;11.80;9.55;;;;;;;19.12;61.76;99913.00;10390564;28;20124;-60
2021/07/11 08:07:26;;;;;;;13.55;9.30;;;;;;;19.18;61.27;99915.06;10392422;28;20449;-60
2021/07/11 08:12:28;;;;;;;13.55;10.02;;;;;;;19.30;60.35;99915.69;10393057;28;20486;-60
2021/07/11 08:17:29;;;;;;;11.73;9.05;;;;;;;19.36;60.10;99926.56;10394590;28;20085;-61
2021/07/11 08:22:31;;;;;;;13.30;10.00;;;;;;;19.33;60.01;99926.88;10393543;28;20077;-62
2021/07/11 08:27:34;;;;;;;14.63;9.77;;;;;;;19.51;58.87;99926.06;10391700;28;20142;-62
2021/07/11 08:32:37;;;;;;;10.15;8.07;;;;;;;19.98;57.59;99927.59;10393474;28;20041;-62
2021/07/11 08:37:39;;;;;;;10.25;8.18;;;;;;;20.29;57.39;99921.72;10392440;28;20494;-62
2021/07/11 08:42:41;;;;;;;9.40;7.68;;;;;;;20.83;55.53;99927.78;10381733;28;20128;-62
2021/07/11 08:47:43;;;;;;;9.93;7.97;;;;;;;21.13;55.30;99935.25;10365771;28;20089;-62
2021/07/11 08:52:46;;;;;;;9.82;7.43;;;;;;;21.35;54.74;99932.09;10364716;28;20050;-62
2021/07/11 08:57:53;;;;;;;8.18;7.07;;;;;;;21.23;54.36;99937.81;10365075;28;20097;-62
2021/07/11 09:03:00;;;;;;;8.90;7.88;;;;;;;21.07;54.63;99943.88;10367906;28;20056;-62
2021/07/11 09:08:11;;;;;;;7.63;5.68;;;;;;;21.15;53.93;99937.78;10366699;28;20038;-62
2021/07/11 09:13:16;;;;;;;9.40;7.57;;;;;;;21.31;53.38;99936.03;10366991;28;20145;-62
2021/07/11 09:18:29;;;;;;;9.38;7.50;;;;;;;21.39;52.27;99941.44;10365430;28;20534;-62
2021/07/11 09:23:31;;;;;;;9.65;7.00;;;;;;;21.55;53.30;99933.50;10367894;28;20169;-62
2021/07/11 09:28:37;;;;;;;9.07;6.80;;;;;;;21.72;53.53;99934.38;10366634;28;20050;-62
2021/07/11 09:33:42;;;;;;;10.68;6.40;;;;;;;21.88;52.28;99942.41;10365809;28;20076;-62
2021/07/11 09:38:53;;;;;;;9.43;6.40;;;;;;;22.15;50.76;99939.47;10366035;28;20603;-62
2021/07/11 09:43:57;;;;;;;9.98;5.22;;;;;;;22.21;51.59;99944.13;10366805;28;20462;-62
2021/07/11 09:48:59;;;;;;;7.25;5.78;;;;;;;22.29;51.91;99946.78;10366143;28;20056;-62
2021/07/11 09:54:14;;;;;;;7.55;5.82;;;;;;;22.58;50.80;99948.97;10364462;28;20042;-62
2021/07/11 09:59:18;;;;;;;8.70;6.45;;;;;;;22.69;51.07;99946.81;10398050;28;20133;-62
2021/07/11 10:04:20;;;;;;;7.15;5.85;;;;;;;22.63;50.95;99950.16;10365753;28;20517;-62
2021/07/11 10:09:22;;;;;;;8.57;6.20;;;;;;;22.90;50.61;99942.81;10365723;28;20050;-62
2021/07/11 10:14:23;;;;;;;6.57;5.75;;;;;;;23.13;49.62;99944.56;10365924;28;20133;-62
2021/07/11 10:19:25;;;;;;;7.30;6.00;;;;;;;22.95;50.16;99953.78;10364841;28;20046;-61
2021/07/11 10:24:27;;;;;;;8.98;6.40;;;;;;;22.77;50.54;99945.97;10364568;28;20414;-62
2021/07/11 10:29:28;;;;;;;8.57;6.35;;;;;;;22.88;50.25;99956.28;10363973;28;20080;-62
2021/07/11 10:34:34;;;;;;;10.15;6.55;;;;;;;22.47;50.10;99957.31;10365080;28;20137;-62
2021/07/11 10:39:36;;;;;;;8.48;6.82;;;;;;;22.21;50.38;99972.63;10364991;28;20103;-62
2021/07/11 10:44:37;;;;;;;8.73;6.80;;;;;;;22.31;50.40;99966.13;10364369;28;20351;-62
2021/07/11 10:49:51;;;;;;;9.30;7.43;;;;;;;22.07;50.39;99974.09;10364548;28;20111;-62
2021/07/11 10:54:56;;;;;;;9.15;8.05;;;;;;;21.70;51.04;99973.66;10363529;28;20046;-62
2021/07/11 11:00:25;;;;;;;11.05;7.85;;;;;;;21.33;51.72;99978.47;10364104;28;20080;-62
2021/07/11 11:05:40;;;;;;;10.10;8.93;;;;;;;21.09;52.51;99979.13;10323207;28;20054;-62
2021/07/11 11:10:44;;;;;;;9.85;8.82;;;;;;;20.76;52.95;99980.78;10322868;28;20086;-61
2021/07/11 11:15:58;;;;;;;12.38;9.18;;;;;;;20.67;53.24;99984.34;10323152;28;20136;-62
2021/07/11 11:21:07;;;;;;;11.20;9.32;;;;;;;20.66;52.91;99971.22;10347983;28;20104;-62
2021/07/11 11:26:15;;;;;;;15.23;10.02;;;;;;;20.68;53.08;99978.03;10363564;28;20053;-62
2021/07/11 11:31:21;;;;;;;15.43;10.70;;;;;;;20.65;53.37;99981.00;10363344;28;20433;-61
2021/07/11 11:36:38;;;;;;;12.80;10.50;;;;;;;20.60;54.45;99983.28;10361576;28;20038;-62
2021/07/11 11:41:41;;;;;;;12.60;9.63;;;;;;;20.70;54.01;99978.69;10363358;28;20046;-62
2021/07/11 11:46:45;;;;;;;9.68;8.65;;;;;;;20.93;52.90;99984.34;10363255;28;20085;-62
2021/07/11 11:51:48;;;;;;;9.65;8.65;;;;;;;21.13;52.69;99982.31;10362556;28;20471;-62
2021/07/11 11:56:50;;;;;;;11.18;9.15;;;;;;;21.50;51.43;99974.88;10362870;28;20088;-62
2021/07/11 12:01:59;;;;;;;9.80;8.07;;;;;;;22.11;49.62;99978.09;10361697;28;20129;-62
2021/07/11 12:07:02;;;;;;;9.73;7.97;;;;;;;22.65;48.31;99961.47;10361420;28;20433;-62
2021/07/11 12:12:11;;;;;;;8.38;7.43;;;;;;;23.18;46.36;99947.56;10361538;28;20128;-62
2021/07/11 12:17:16;;;;;;;9.00;7.75;;;;;;;23.51;45.95;99945.63;10367125;28;20050;-62
2021/07/11 12:22:26;;;;;;;7.90;6.80;;;;;;;24.01;43.22;99937.97;10369567;28;20042;-62
2021/07/11 12:27:32;;;;;;;8.10;6.93;;;;;;;24.23;43.45;99947.88;10370183;28;20136;-61
2021/07/11 12:32:40;;;;;;;7.50;6.50;;;;;;;23.97;42.70;99943.84;10369728;28;20056;-62
2021/07/11 12:38:11;;;;;;;7.10;6.40;;;;;;;24.08;42.87;99943.50;10369417;28;20349;-62
2021/07/11 12:43:30;;;;;;;8.75;6.90;;;;;;;24.19;43.50;99940.38;10368431;28;20522;-62
2021/07/11 12:48:48;;;;;;;9.07;6.68;;;;;;;24.04;43.97;99936.81;10368488;28;20137;-62
2021/07/11 12:54:14;;;;;;;7.20;6.50;;;;;;;24.45;44.22;99924.78;10383425;28;20121;-62
2021/07/11 12:59:35;;;;;;;9.98;6.60;;;;;;;24.43;43.62;99920.66;10368286;28;20158;-62
2021/07/11 13:04:44;;;;;;;7.32;5.88;;;;;;;24.52;43.67;99917.72;10327963;28;20077;-62
2021/07/11 13:09:46;;;;;;;;;;;;;;;24.37;44.75;99918.72;10328380;28;20141;-61
2021/07/11 13:14:52;;;;;;;7.85;5.88;;;;;;;24.28;43.45;99926.81;10342885;28;20373;-62
2021/07/11 13:19:56;;;;;;;8.18;5.90;;;;;;;24.16;44.40;99922.06;10367836;28;20050;-62
2021/07/11 13:24:59;;;;;;;7.68;6.15;;;;;;;24.26;43.77;99919.97;10367902;28;20510;-62
2021/07/11 13:30:00;;;;;;;6.80;5.68;;;;;;;24.25;44.14;99916.44;10367855;28;20235;-61
2021/07/11 13:35:02;;;;;;;6.45;5.30;;;;;;;24.75;43.29;99917.72;10367019;28;20129;-62
2021/07/11 13:40:06;;;;;;;7.20;5.85;;;;;;;25.03;43.47;99916.91;10367724;28;20513;-62
2021/07/11 13:45:11;;;;;;;7.82;5.22;;;;;;;24.99;41.50;99909.41;10366646;28;20085;-62
2021/07/11 13:50:14;;;;;;;6.70;5.07;;;;;;;24.32;42.50;99894.34;10366487;28;20140;-62
2021/07/11 13:55:18;;;;;;;5.97;5.30;;;;;;;24.07;43.77;99897.22;10366251;28;20470;-62
2021/07/11 14:00:21;;;;;;;6.53;5.55;;;;;;;24.40;43.57;99903.13;10396550;28;20130;-62
2021/07/11 14:05:23;;;;;;;8.13;4.55;;;;;;;24.56;42.36;99891.44;10366508;28;20105;-61
2021/07/11 14:10:27;;;;;;;5.30;4.25;;;;;;;24.63;42.13;99887.03;10365925;28;20499;-62
2021/07/11 14:15:31;;;;;;;6.30;4.95;;;;;;;24.57;42.00;99883.25;10365188;28;20077;-62
2021/07/11 14:20:33;;;;;;;4.82;4.32;;;;;;;24.39;41.98;99879.25;10348405;28;20089;-62
2021/07/11 14:25:35;;;;;;;7.07;4.22;;;;;;;24.61;42.27;99868.47;10365717;28;20045;-61
2021/07/11 14:30:37;;;;;;;4.90;4.20;;;;;;;24.92;42.67;99876.38;10364285;28;20087;-62
2021/07/11 14:35:39;;;;;;;6.53;4.00;;;;;;;25.33;41.64;99863.31;10365040;28;20112;-62
2021/07/11 14:40:42;;;;;;;4.22;3.50;;;;;;;25.39;39.56;99858.09;10364372;28;20046;-62
2021/07/11 14:45:44;;;;;;;4.50;3.80;;;;;;;25.49;40.34;99852.44;10363855;28;20125;-62
2021/07/11 14:50:48;;;;;;;5.55;3.15;;;;;;;25.13;39.04;99841.66;10364290;28;20457;-62
2021/07/11 14:55:51;;;;;;;4.50;3.40;;;;;;;25.09;40.50;99851.94;10364211;28;20133;-62
2021/07/11 15:00:52;;;;;;;3.70;2.83;;;;;;;25.31;39.68;99834.06;10363593;28;20133;-62
2021/07/11 15:05:54;;;;;;;3.90;2.90;;;;;;;25.29;39.14;99836.09;10363911;28;20121;-62
2021/07/11 15:10:56;;;;;;;4.78;2.90;;;;;;;25.45;41.08;99830.56;10363246;28;20125;-62
2021/07/11 15:16:02;;;;;;;5.03;2.83;;;;;;;25.25;40.61;99829.47;10363474;28;20129;-62
2021/07/11 15:21:05;;;;;;;5.75;3.00;;;;;;;25.02;41.15;99826.09;10363582;28;20141;-62
2021/07/11 15:26:06;;;;;;;4.28;3.20;;;;;;;24.82;40.87;99825.84;10363738;28;20084;-62
2021/07/11 15:31:09;;;;;;;4.60;3.08;;;;;;;24.38;40.97;99814.28;10361318;28;20054;-61
2021/07/11 15:36:11;;;;;;;5.32;3.00;;;;;;;24.75;40.87;99813.41;10363089;28;20042;-62
2021/07/11 15:41:13;;;;;;;4.05;3.03;;;;;;;24.64;41.16;99809.31;10363453;28;20073;-62
2021/07/11 15:46:15;;;;;;;5.00;3.08;;;;;;;24.48;41.09;99801.47;10362481;28;20129;-62
2021/07/11 15:51:17;;;;;;;4.85;2.78;;;;;;;24.22;41.87;99793.06;10366686;28;20050;-62
2021/07/11 15:56:19;;;;;;;4.45;3.00;;;;;;;24.41;41.96;99784.47;10369893;28;20050;-62
2021/07/11 16:01:22;;;;;;;6.55;3.17;;;;;;;24.78;41.35;99780.91;10370944;28;20038;-62
2021/07/11 16:06:24;;;;;;;3.97;3.03;;;;;;;24.33;42.93;99781.09;10370586;28;20092;-62
2021/07/11 16:11:26;;;;;;;3.55;2.90;;;;;;;24.26;42.51;99776.47;10370442;28;20054;-61
2021/07/11 16:16:28;;;;;;;4.55;3.00;;;;;;;24.13;42.87;99772.75;10369877;28;20053;-62
2021/07/11 16:21:31;;;;;;;5.85;3.25;;;;;;;24.18;44.35;99775.72;10369587;28;20053;-62
2021/07/11 16:26:33;;;;;;;5.05;3.10;;;;;;;24.31;42.83;99775.91;10370074;28;20060;-62
2021/07/11 16:31:35;;;;;;;6.15;2.80;;;;;;;24.42;41.84;99771.94;10368438;28;20050;-62
2021/07/11 16:36:36;;;;;;;4.65;2.90;;;;;;;24.36;42.61;99762.00;10367433;28;20050;-61
2021/07/11 16:41:39;;;;;;;4.18;2.72;;;;;;;24.40;41.75;99764.13;10369538;28;20048;-61
2021/07/11 16:46:43;;;;;;;4.32;2.80;;;;;;;24.45;41.88;99771.59;10383883;28;20581;-61
2021/07/11 16:51:45;;;;;;;3.95;2.60;;;;;;;24.13;42.86;99775.44;10367152;28;20523;-61
2021/07/11 16:56:47;;;;;;;4.53;2.58;;;;;;;24.16;41.84;99767.88;10363809;28;20132;-61
2021/07/11 17:01:49;;;;;;;4.00;2.42;;;;;;;24.22;42.09;99767.16;10392497;28;20494;-62
2021/07/11 17:06:51;;;;;;;4.75;2.80;;;;;;;24.24;41.66;99762.47;10370285;28;20309;-61
2021/07/11 17:11:53;;;;;;;4.00;2.78;;;;;;;24.37;42.45;99764.47;10407032;28;20063;-62
2021/07/11 17:16:55;;;;;;;5.05;2.67;;;;;;;24.26;41.57;99757.78;10402397;28;20140;-61
2021/07/11 17:21:56;;;;;;;3.70;2.50;;;;;;;24.08;43.06;99764.47;10407250;28;20048;-61
2021/07/11 17:26:59;;;;;;;3.90;2.78;;;;;;;23.85;43.93;99767.16;10406093;28;20068;-62
2021/07/11 17:32:01;;;;;;;4.53;2.63;;;;;;;23.85;44.05;99758.31;10398882;28;20068;-62
2021/07/11 17:37:03;;;;;;;3.90;2.90;;;;;;;23.88;44.27;99766.78;10399798;28;20128;-61
2021/07/11 17:42:05;;;;;;;6.10;2.90;;;;;;;23.85;45.01;99767.16;10405499;28;20076;-61
2021/07/11 17:47:07;;;;;;;9.10;2.85;;;;;;;23.81;45.04;99765.00;10405814;28;20120;-61
2021/07/11 17:52:08;;;;;;;4.15;2.90;;;;;;;23.79;44.69;99762.53;10406120;28;20049;-61
2021/07/11 17:57:10;;;;;;;3.92;2.88;;;;;;;23.72;45.07;99764.25;10346345;28;20046;-62
2021/07/11 18:02:12;;;;;;;4.22;2.90;;;;;;;23.58;45.32;99770.38;10359011;28;20391;-62
2021/07/11 18:07:13;;;;;;;4.68;2.90;;;;;;;23.46;45.84;99766.47;10365747;28;20125;-61
2021/07/11 18:12:15;;;;;;;3.72;2.80;;;;;;;23.38;45.82;99763.81;10361679;28;20129;-62
2021/07/11 18:17:17;;;;;;;4.03;3.20;;;;;;;23.26;46.47;99762.56;10365339;28;20125;-61
2021/07/11 18:22:19;;;;;;;5.05;3.20;;;;;;;23.05;46.00;99770.34;10365633;28;20186;-62
2021/07/11 18:27:22;;;;;;;6.65;3.47;;;;;;;22.72;46.79;99774.16;10365648;28;20129;-62
2021/07/11 18:32:24;;;;;;;9.27;3.33;;;;;;;22.56;47.93;99769.69;10364747;28;20053;-62
2021/07/11 18:37:29;;;;;;;4.35;3.10;;;;;;;22.46;49.33;99763.75;10364209;28;20045;-62
2021/07/11 18:42:31;;;;;;;4.82;3.05;;;;;;;22.23;50.17;99766.28;10380272;28;20125;-62
2021/07/11 18:47:35;;;;;;;5.75;3.25;;;;;;;21.94;50.28;99760.69;10364889;28;20129;-61
2021/07/11 18:52:43;;;;;;;6.82;3.20;;;;;;;21.63;51.37;99760.53;10364364;28;20050;-61
2021/07/11 18:57:45;;;;;;;6.78;3.50;;;;;;;21.47;52.70;99760.50;10364242;28;20133;-62
2021/07/11 19:02:47;;;;;;;6.43;4.18;;;;;;;21.33;53.14;99766.50;10370215;28;20122;-61
2021/07/11 19:07:49;;;;;;;5.75;3.75;;;;;;;21.04;54.27;99771.38;10403865;28;20153;-62
2021/07/11 19:12:50;;;;;;;9.40;3.60;;;;;;;20.86;54.48;99766.19;10399428;28;20063;-61
2021/07/11 19:17:52;;;;;;;6.82;3.80;;;;;;;20.65;55.58;99762.25;10362316;28;20121;-61
2021/07/11 19:22:59;;;;;;;5.72;3.47;;;;;;;20.40;55.87;99763.91;10394773;28;20489;-61
2021/07/11 19:28:01;;;;;;;6.13;3.63;;;;;;;20.24;56.51;99763.84;10402541;28;20580;-61
2021/07/11 19:33:05;;;;;;;6.65;4.28;;;;;;;19.99;57.67;99770.81;10402271;28;20124;-61
2021/07/11 19:38:08;;;;;;;6.53;4.10;;;;;;;19.74;58.12;99768.94;10402591;28;20084;-61
2021/07/11 19:43:10;;;;;;;9.75;4.10;;;;;;;19.59;59.00;99773.13;10399346;28;20132;-61
2021/07/11 19:48:11;;;;;;;6.57;4.15;;;;;;;19.43;59.18;99781.78;10388140;28;20125;-61
2021/07/11 19:53:14;;;;;;;6.25;4.38;;;;;;;19.24;60.07;99784.56;10377895;28;20490;-61
2021/07/11 19:58:15;;;;;;;6.45;4.18;;;;;;;19.17;60.13;99788.81;10396738;28;20504;-61
2021/07/11 20:03:17;;;;;;;7.60;4.50;;;;;;;18.79;60.76;99796.91;10398127;28;20409;-61
2021/07/11 20:08:19;;;;;;;8.88;4.82;;;;;;;18.73;61.17;99794.84;10398247;28;20056;-61
2021/07/11 20:13:21;;;;;;;6.32;5.72;;;;;;;18.71;61.26;99783.56;10360956;28;20089;-61
2021/07/11 20:18:22;;;;;;;9.93;4.93;;;;;;;18.72;60.93;99781.75;10360932;28;20494;-61
2021/07/11 20:23:25;;;;;;;8.68;4.30;;;;;;;18.66;61.26;99785.84;10363038;28;20129;-61
2021/07/11 20:28:26;;;;;;;6.82;4.30;;;;;;;18.57;61.43;99776.94;10362598;28;20108;-61
2021/07/11 20:33:28;;;;;;;6.47;4.63;;;;;;;18.48;61.61;99769.88;10362419;28;20137;-61
2021/07/11 20:38:30;;;;;;;7.18;5.00;;;;;;;18.37;61.89;99779.81;10367248;28;20157;-61
2021/07/11 20:43:33;;;;;;;12.13;6.60;;;;;;;18.17;61.78;99786.97;10369885;28;20073;-62
2021/07/11 20:48:35;;;;;;;8.60;5.65;;;;;;;17.60;62.91;99789.66;10369295;28;20056;-61
2021/07/11 20:53:37;;;;;;;11.10;6.20;;;;;;;17.52;63.45;99794.81;10384101;28;20060;-61
2021/07/11 20:58:41;;;;;;;7.07;5.30;;;;;;;17.54;63.81;99791.06;10369162;28;20145;-59
2021/07/11 21:03:43;;;;;;;9.50;5.53;;;;;;;17.63;63.57;99786.72;10366451;28;20060;-60
2021/07/11 21:08:46;;;;;;;10.02;5.97;;;;;;;17.59;63.61;99786.19;10396963;28;20049;-60
2021/07/11 21:13:50;;;;;;;11.65;6.50;;;;;;;17.38;63.80;99776.72;10366852;28;20061;-60
2021/07/11 21:18:52;;;;;;;8.15;6.28;;;;;;;17.20;63.93;99776.53;10365309;28;20056;-60
2021/07/11 21:23:53;;;;;;;11.00;5.90;;;;;;;17.07;64.46;99775.97;10360972;28;20482;-60
2021/07/11 21:28:56;;;;;;;7.82;4.85;;;;;;;17.16;64.75;99777.78;10366957;28;20565;-60
2021/07/11 21:33:58;;;;;;;7.65;5.30;;;;;;;17.24;64.30;99782.38;10366985;28;20161;-60
2021/07/11 21:39:00;;;;;;;11.48;5.78;;;;;;;17.10;63.98;99788.88;10367027;28;20420;-60
2021/07/11 21:44:02;;;;;;;10.77;5.85;;;;;;;16.84;64.79;99793.00;10366007;28;20046;-59
2021/07/11 21:49:03;;;;;;;13.57;5.72;;;;;;;16.92;64.99;99795.81;10365534;28;20160;-60
2021/07/11 21:54:05;;;;;;;11.77;6.25;;;;;;;16.94;64.79;99792.06;10365807;28;20132;-60
2021/07/11 21:59:07;;;;;;;11.23;6.43;;;;;;;16.77;65.27;99794.53;10355084;28;20517;-60
2021/07/11 22:04:09;;;;;;;10.95;5.35;;;;;;;16.82;64.95;99794.94;10364690;28;20138;-60
2021/07/11 22:09:11;;;;;;;12.55;5.72;;;;;;;16.80;64.85;99792.44;10364123;28;20129;-60
2021/07/11 22:14:12;;;;;;;16.10;6.43;;;;;;;16.64;64.29;99778.91;10364940;28;20085;-60
2021/07/11 22:19:14;;;;;;;10.77;5.05;;;;;;;16.37;64.68;99793.59;10364042;28;20067;-60
2021/07/11 22:24:18;;;;;;;11.77;5.05;;;;;;;16.46;64.91;99793.69;10363717;28;20148;-60
2021/07/11 22:29:20;;;;;;;13.55;5.20;;;;;;;16.51;64.73;99799.41;10363991;28;20082;-60
2021/07/11 22:34:22;;;;;;;9.55;5.35;;;;;;;16.50;64.65;99794.25;10363531;28;20094;-60
2021/07/11 22:39:23;;;;;;;10.30;4.97;;;;;;;16.36;65.05;99789.31;10363711;28;20455;-60
2021/07/11 22:44:28;;;;;;;8.40;5.53;;;;;;;16.32;64.88;99793.19;10363861;28;20577;-60
2021/07/11 22:49:29;;;;;;;13.27;6.32;;;;;;;16.25;64.88;99795.50;10362338;28;20137;-60
2021/07/11 22:54:31;;;;;;;8.02;5.18;;;;;;;16.23;65.21;99793.00;10361508;28;20133;-60
2021/07/11 22:59:33;;;;;;;10.65;5.20;;;;;;;16.23;64.98;99778.97;10362567;28;20493;-60
2021/07/11 23:04:35;;;;;;;7.32;5.60;;;;;;;16.26;64.92;99770.78;10363156;28;20607;-60
2021/07/11 23:09:36;;;;;;;9.10;5.72;;;;;;;15.87;65.47;99775.00;10362635;28;20077;-60
2021/07/11 23:14:38;;;;;;;9.23;5.07;;;;;;;15.76;65.94;99764.50;10362623;28;20129;-61
2021/07/11 23:19:40;;;;;;;9.85;5.50;;;;;;;15.74;65.94;99769.06;10363400;28;20136;-60
2021/07/11 23:24:41;;;;;;;12.07;5.97;;;;;;;15.82;65.42;99756.09;10362584;28;20134;-60
2021/07/11 23:29:43;;;;;;;18.52;6.22;;;;;;;15.80;65.02;99763.28;10363279;28;20085;-60